Jupiter Spirit — A8ZC2 — position and weather

sailwx.info

Track history (hours):
 
Tides and Currents Weather Stations Pressure Air Temp Water Temp Dewpoint Dewpoint Depression Visibility Wind Speed Wind Dir Waves Ship Positions

Jupiter Spirit

Last reported at 2014-Sep-17 23:19 UTC. Time now 2014-Sep-20 03:52 UTC.
Position N 38°08' W 009°41'.

Length 183 m; draft 8.5 m.

Type: Cargo ship. MMSI: 636015173.

Date/timePositionNaut miles runAvg speedWind from/ knotsBaromVisibWave heightAir tempDewpointWater temp
2014-Sep-17 23:19N 38°08' W 009°41'1115.1
2014-Sep-17 22:33N 37°57' W 009°38'1515.3
2014-Sep-17 21:34N 37°42' W 009°33'7014.1
2014-Sep-17 16:33N 36°40' W 008°52'17314.4
2014-Sep-17 04:29N 36°00' W 005°23'23814.0
2014-Sep-16 11:33N 37°25' W 000°46'1615.9
2014-Sep-16 10:33N 37°36' W 000°32'1715.7
2014-Sep-16 09:29N 37°50' W 000°20'1515.8
2014-Sep-16 08:33N 38°02' W 000°10'11815.8
2014-Sep-16 01:06N 39°45' E 001°06'3015.6
2014-Sep-15 23:10N 40°11' E 001°24'1815.6
2014-Sep-15 22:03N 40°27' E 001°35'1015.6
2014-Sep-15 21:26N 40°35' E 001°41'1716.0
2014-Sep-15 20:21N 40°50' E 001°52'1415.8
2014-Sep-15 19:27N 41°03' E 002°01'51 2.4
2014-Sep-14 22:10N 41°29' E 002°59'2815.3
2014-Sep-14 20:18N 41°40' E 003°34'1115.1
2014-Sep-14 19:33N 41°44' E 003°48'1515.4
2014-Sep-14 18:33N 41°50' E 004°07'1614.5
2014-Sep-14 17:29N 41°56' E 004°27'1414.6
2014-Sep-14 16:29N 42°01' E 004°45'1514.7
2014-Sep-14 15:27N 42°07' E 005°04'6515.0
2014-Sep-14 11:06N 42°31' E 006°26'1214.6
2014-Sep-14 10:18N 42°36' E 006°40'12015.2
2014-Sep-14 02:23N 43°22' E 009°12'1214.8
2014-Sep-14 01:33N 43°25' E 009°29'37 9.2
2014-Sep-13 21:31N 43°35' E 010°18'0 0.0
2014-Sep-13 20:31N 43°35' E 010°18'0 0.0
2014-Sep-13 19:31N 43°35' E 010°18'0 0.0
2014-Sep-13 18:31N 43°35' E 010°18'0 0.0
2014-Sep-13 17:31N 43°35' E 010°18'0 0.0
2014-Sep-13 16:25N 43°35' E 010°18'0 0.0
2014-Sep-13 15:31N 43°35' E 010°18'0 0.0
2014-Sep-13 14:31N 43°35' E 010°18'5 5.5
2014-Sep-13 13:33N 43°30' E 010°14'1413.9
2014-Sep-13 12:33N 43°18' E 010°06'1413.8
2014-Sep-13 11:33N 43°05' E 009°59'22013.8
2014-Sep-12 19:33N 39°32' E 011°15'19413.9
2014-Sep-12 05:34N 36°57' E 013°43'1515.2
2014-Sep-12 04:33N 36°49' E 013°60'1514.9
2014-Sep-12 03:34N 36°44' E 014°17'1515.4
2014-Sep-12 02:33N 36°38' E 014°35'40915.0
2014-Sep-10 23:22N 36°03' E 023°00'1113.4
2014-Sep-10 22:33N 36°10' E 023°11'1615.8
2014-Sep-10 21:33N 36°24' E 023°19'7815.5
2014-Sep-10 16:30N 37°40' E 023°42'1314.0
2014-Sep-10 15:34N 37°53' E 023°36'5 4.5
2014-Sep-10 14:31N 37°58' E 023°36'0 0.0
2014-Sep-10 13:28N 37°58' E 023°36'0 0.0
2014-Sep-10 12:31N 37°58' E 023°36'0 0.0
2014-Sep-10 11:31N 37°58' E 023°36'0 0.0
2014-Sep-10 10:31N 37°58' E 023°36'0 0.0
2014-Sep-10 09:31N 37°58' E 023°36'2 1.6
2014-Sep-10 08:33N 37°56' E 023°36'6 5.8
2014-Sep-10 07:33N 37°51' E 023°39'1110.7
2014-Sep-10 06:33N 37°41' E 023°45'4511.1
2014-Sep-10 02:28N 36°58' E 024°04'1112.3
2014-Sep-10 01:33N 36°47' E 024°08'1211.8
2014-Sep-10 00:33N 36°36' E 024°14'1212.4
2014-Sep-09 23:33N 36°29' E 024°26'1312.7
2014-Sep-09 22:33N 36°22' E 024°39'1312.6
2014-Sep-09 21:33N 36°15' E 024°52'1313.0
2014-Sep-09 20:33N 36°07' E 025°05'1313.4
2014-Sep-09 19:33N 35°60' E 025°19'1313.5
2014-Sep-09 18:33N 35°52' E 025°33'1313.2
2014-Sep-09 17:33N 35°45' E 025°46'  
Track history (hours):
 
Tides and Currents Weather Stations Pressure Air Temp Water Temp Dewpoint Dewpoint Depression Visibility Wind Speed Wind Dir Waves Ship Positions

Jupiter Spirit

Last reported at 2014-Sep-17 23:19 UTC. Time now 2014-Sep-20 03:52 UTC.
Position N 38°08' W 009°41'.

Length 183 m; draft 8.5 m.

Type: Cargo ship. MMSI: 636015173.

Date/timePositionNaut miles runAvg speedWind from/ knotsBaromVisibWave heightAir tempDewpointWater temp
2014-Sep-17 23:19N 38°08' W 009°41'1115.1
2014-Sep-17 22:33N 37°57' W 009°38'1515.3
2014-Sep-17 21:34N 37°42' W 009°33'7014.1
2014-Sep-17 16:33N 36°40' W 008°52'17314.4
2014-Sep-17 04:29N 36°00' W 005°23'23814.0
2014-Sep-16 11:33N 37°25' W 000°46'1615.9
2014-Sep-16 10:33N 37°36' W 000°32'1715.7
2014-Sep-16 09:29N 37°50' W 000°20'1515.8
2014-Sep-16 08:33N 38°02' W 000°10'11815.8
2014-Sep-16 01:06N 39°45' E 001°06'3015.6
2014-Sep-15 23:10N 40°11' E 001°24'1815.6
2014-Sep-15 22:03N 40°27' E 001°35'1015.6
2014-Sep-15 21:26N 40°35' E 001°41'1716.0
2014-Sep-15 20:21N 40°50' E 001°52'1415.8
2014-Sep-15 19:27N 41°03' E 002°01'51 2.4
2014-Sep-14 22:10N 41°29' E 002°59'2815.3
2014-Sep-14 20:18N 41°40' E 003°34'1115.1
2014-Sep-14 19:33N 41°44' E 003°48'1515.4
2014-Sep-14 18:33N 41°50' E 004°07'1614.5
2014-Sep-14 17:29N 41°56' E 004°27'1414.6
2014-Sep-14 16:29N 42°01' E 004°45'1514.7
2014-Sep-14 15:27N 42°07' E 005°04'6515.0
2014-Sep-14 11:06N 42°31' E 006°26'1214.6
2014-Sep-14 10:18N 42°36' E 006°40'12015.2
2014-Sep-14 02:23N 43°22' E 009°12'1214.8
2014-Sep-14 01:33N 43°25' E 009°29'37 9.2
2014-Sep-13 21:31N 43°35' E 010°18'0 0.0
2014-Sep-13 20:31N 43°35' E 010°18'0 0.0
2014-Sep-13 19:31N 43°35' E 010°18'0 0.0
2014-Sep-13 18:31N 43°35' E 010°18'0 0.0
2014-Sep-13 17:31N 43°35' E 010°18'0 0.0
2014-Sep-13 16:25N 43°35' E 010°18'0 0.0
2014-Sep-13 15:31N 43°35' E 010°18'0 0.0
2014-Sep-13 14:31N 43°35' E 010°18'5 5.5
2014-Sep-13 13:33N 43°30' E 010°14'1413.9
2014-Sep-13 12:33N 43°18' E 010°06'1413.8
2014-Sep-13 11:33N 43°05' E 009°59'22013.8
2014-Sep-12 19:33N 39°32' E 011°15'19413.9
2014-Sep-12 05:34N 36°57' E 013°43'1515.2
2014-Sep-12 04:33N 36°49' E 013°60'1514.9
2014-Sep-12 03:34N 36°44' E 014°17'1515.4
2014-Sep-12 02:33N 36°38' E 014°35'40915.0
2014-Sep-10 23:22N 36°03' E 023°00'1113.4
2014-Sep-10 22:33N 36°10' E 023°11'1615.8
2014-Sep-10 21:33N 36°24' E 023°19'7815.5
2014-Sep-10 16:30N 37°40' E 023°42'1314.0
2014-Sep-10 15:34N 37°53' E 023°36'5 4.5
2014-Sep-10 14:31N 37°58' E 023°36'0 0.0
2014-Sep-10 13:28N 37°58' E 023°36'0 0.0
2014-Sep-10 12:31N 37°58' E 023°36'0 0.0
2014-Sep-10 11:31N 37°58' E 023°36'0 0.0
2014-Sep-10 10:31N 37°58' E 023°36'0 0.0
2014-Sep-10 09:31N 37°58' E 023°36'2 1.6
2014-Sep-10 08:33N 37°56' E 023°36'6 5.8
2014-Sep-10 07:33N 37°51' E 023°39'1110.7
2014-Sep-10 06:33N 37°41' E 023°45'4511.1
2014-Sep-10 02:28N 36°58' E 024°04'1112.3
2014-Sep-10 01:33N 36°47' E 024°08'1211.8
2014-Sep-10 00:33N 36°36' E 024°14'1212.4
2014-Sep-09 23:33N 36°29' E 024°26'1312.7
2014-Sep-09 22:33N 36°22' E 024°39'1312.6
2014-Sep-09 21:33N 36°15' E 024°52'1313.0
2014-Sep-09 20:33N 36°07' E 025°05'1313.4
2014-Sep-09 19:33N 35°60' E 025°19'1313.5
2014-Sep-09 18:33N 35°52' E 025°33'1313.2
2014-Sep-09 17:33N 35°45' E 025°46'  

Dump ship's entire track history